createdAt,value
2018-01-20T00:00:14.130Z,1001.36
2018-01-20T00:01:14.106Z,1001.32
2018-01-20T00:02:14.086Z,1001.38
2018-01-20T00:03:14.060Z,1001.33
2018-01-20T00:04:14.034Z,1001.33
2018-01-20T00:05:14.014Z,1001.38
2018-01-20T00:06:13.990Z,1001.34
2018-01-20T00:07:13.969Z,1001.38
2018-01-20T00:08:13.946Z,1001.41
2018-01-20T00:09:13.929Z,1001.38
2018-01-20T00:10:13.911Z,1001.40
2018-01-20T00:11:13.882Z,1001.37
2018-01-20T00:12:13.859Z,1001.45
2018-01-20T00:13:13.839Z,1001.40
2018-01-20T00:14:13.821Z,1001.36
2018-01-20T00:15:13.788Z,1001.37
2018-01-20T00:16:13.772Z,1001.39
2018-01-20T00:17:13.754Z,1001.39
2018-01-20T00:18:13.720Z,1001.40
2018-01-20T00:19:13.696Z,1001.35
2018-01-20T00:20:13.680Z,1001.38
2018-01-20T00:21:13.661Z,1001.34
2018-01-20T00:22:13.640Z,1001.35
2018-01-20T00:23:13.624Z,1001.38
2018-01-20T00:24:13.587Z,1001.39
2018-01-20T00:25:13.562Z,1001.37
2018-01-20T00:26:13.538Z,1001.40
2018-01-20T00:27:13.515Z,1001.40
2018-01-20T00:28:13.498Z,1001.39
2018-01-20T00:29:13.470Z,1001.34
2018-01-20T00:30:13.448Z,1001.33
2018-01-20T00:31:13.427Z,1001.40
2018-01-20T00:32:13.408Z,1001.37
2018-01-20T00:33:13.380Z,1001.35
2018-01-20T00:34:13.356Z,1001.34
2018-01-20T00:35:13.333Z,1001.32
2018-01-20T00:36:13.318Z,1001.34
2018-01-20T00:37:13.296Z,1001.33
2018-01-20T00:38:13.271Z,1001.32
2018-01-20T00:39:13.250Z,1001.31
2018-01-20T00:40:13.229Z,1001.32
2018-01-20T00:41:13.206Z,1001.33
2018-01-20T00:42:13.233Z,1001.30
2018-01-20T00:43:13.163Z,1001.31
2018-01-20T00:44:13.184Z,1001.31
2018-01-20T00:45:13.117Z,1001.29
2018-01-20T00:46:13.094Z,1001.28
2018-01-20T00:47:13.119Z,1001.27
2018-01-20T00:48:13.094Z,1001.29
2018-01-20T00:49:13.026Z,1001.26
2018-01-20T00:50:13.002Z,1001.30
2018-01-20T00:51:12.978Z,1001.29
2018-01-20T00:52:12.959Z,1001.27
2018-01-20T00:53:12.931Z,1001.28
2018-01-20T00:54:12.959Z,1001.29
2018-01-20T00:55:12.892Z,1001.27
2018-01-20T00:56:12.953Z,1001.23
2018-01-20T00:57:12.852Z,1001.17
2018-01-20T00:58:12.961Z,1001.13
2018-01-20T00:59:12.797Z,1001.08
2018-01-20T01:00:12.796Z,1001.09
2018-01-20T01:01:12.756Z,1001.11
2018-01-20T01:02:12.736Z,1001.12
2018-01-20T01:03:12.707Z,1001.12
2018-01-20T01:04:12.789Z,1001.10
2018-01-20T01:05:12.661Z,1001.10
2018-01-20T01:06:12.751Z,1001.06
2018-01-20T01:07:12.618Z,1001.04
2018-01-20T01:08:12.640Z,1001.05
2018-01-20T01:09:12.581Z,1001.03
2018-01-20T01:10:12.656Z,1001.00
2018-01-20T01:11:12.527Z,1001.02
2018-01-20T01:12:12.608Z,1001.02
2018-01-20T01:13:12.489Z,1001.01
2018-01-20T01:14:12.616Z,1001.04
2018-01-20T01:15:12.444Z,1001.05
2018-01-20T01:16:12.465Z,1001.02
2018-01-20T01:17:12.398Z,1001.04
2018-01-20T01:18:12.368Z,1001.06
2018-01-20T01:19:12.350Z,1001.05
2018-01-20T01:20:12.328Z,1001.00
2018-01-20T01:21:12.308Z,1000.99
2018-01-20T01:22:12.286Z,1001.07
2018-01-20T01:23:12.259Z,1001.08
2018-01-20T01:24:12.233Z,1001.11
2018-01-20T01:25:12.210Z,1001.08
2018-01-20T01:26:12.202Z,1001.07
2018-01-20T01:27:12.163Z,1001.05
2018-01-20T01:28:12.144Z,1001.05
2018-01-20T01:29:12.121Z,1001.05
2018-01-20T01:30:12.102Z,1001.04
2018-01-20T01:31:12.077Z,1000.98
2018-01-20T01:32:12.060Z,1001.01
2018-01-20T01:33:12.032Z,1001.05
2018-01-20T01:34:12.011Z,1001.00
2018-01-20T01:35:11.984Z,1001.02
2018-01-20T01:36:11.963Z,1001.01
2018-01-20T01:37:11.944Z,1001.01
2018-01-20T01:38:11.924Z,1001.05
2018-01-20T01:39:11.893Z,1001.00
2018-01-20T01:40:11.892Z,1000.99
2018-01-20T01:41:11.851Z,1000.99
2018-01-20T01:42:11.826Z,1000.96
2018-01-20T01:43:11.811Z,1000.93
2018-01-20T01:44:11.782Z,1000.89
2018-01-20T01:45:11.759Z,1000.93
2018-01-20T01:46:11.749Z,1000.96
2018-01-20T01:47:11.718Z,1000.96
2018-01-20T01:48:11.690Z,1000.92
2018-01-20T01:49:11.666Z,1001.00
2018-01-20T01:50:11.650Z,1001.05
2018-01-20T01:51:11.618Z,1000.99
2018-01-20T01:52:11.600Z,1001.02
2018-01-20T01:53:11.582Z,1001.00
2018-01-20T01:54:11.558Z,1001.01
2018-01-20T01:55:11.530Z,1001.00
2018-01-20T01:56:11.511Z,1000.99
2018-01-20T01:57:11.493Z,1000.99
2018-01-20T01:58:11.472Z,1001.06
2018-01-20T01:59:11.440Z,1001.06
2018-01-20T02:00:11.424Z,1001.05
2018-01-20T02:01:11.413Z,1001.01
2018-01-20T02:02:11.375Z,1001.08
2018-01-20T02:03:11.350Z,1001.02
2018-01-20T02:04:11.329Z,1000.99
2018-01-20T02:05:11.300Z,1000.97
2018-01-20T02:06:11.278Z,1001.02
2018-01-20T02:07:11.258Z,1000.99
2018-01-20T02:08:11.244Z,1000.97
2018-01-20T02:09:11.224Z,1001.09
2018-01-20T02:10:11.189Z,1001.03
2018-01-20T02:11:11.170Z,1000.94
2018-01-20T02:12:11.144Z,1001.01
2018-01-20T02:13:11.137Z,1000.98
2018-01-20T02:14:11.097Z,1000.97
2018-01-20T02:15:11.074Z,1000.97
2018-01-20T02:16:11.054Z,1000.89
2018-01-20T02:17:11.028Z,1000.94
2018-01-20T02:18:11.006Z,1000.97
2018-01-20T02:19:10.984Z,1000.98
2018-01-20T02:20:10.961Z,1000.97
2018-01-20T02:21:10.939Z,1000.96
2018-01-20T02:22:10.917Z,1000.99
2018-01-20T02:23:11.197Z,1000.99
2018-01-20T02:24:10.870Z,1000.98
2018-01-20T02:25:10.851Z,1000.99
2018-01-20T02:26:10.822Z,1001.02
2018-01-20T02:27:10.800Z,1000.98
2018-01-20T02:28:10.778Z,1000.92
2018-01-20T02:29:10.756Z,1000.95
2018-01-20T02:30:10.740Z,1000.98
2018-01-20T02:31:10.713Z,1000.94
2018-01-20T02:32:10.692Z,1001.00
2018-01-20T02:33:10.663Z,1000.98
2018-01-20T02:34:10.645Z,1000.97
2018-01-20T02:35:10.630Z,1000.90
2018-01-20T02:36:10.601Z,1000.93
2018-01-20T02:37:10.580Z,1000.95
2018-01-20T02:38:10.549Z,1000.97
2018-01-20T02:39:10.527Z,1000.96
2018-01-20T02:40:10.509Z,1000.95
2018-01-20T02:41:10.497Z,1000.96
2018-01-20T02:42:10.458Z,1000.99
2018-01-20T02:43:10.439Z,1000.98
2018-01-20T02:44:10.420Z,1001.08
2018-01-20T02:45:10.399Z,1000.99
2018-01-20T02:46:10.370Z,1001.00
2018-01-20T02:47:10.350Z,1000.99
2018-01-20T02:48:10.333Z,1000.97
2018-01-20T02:49:10.307Z,1001.06
2018-01-20T02:50:10.277Z,1000.97
2018-01-20T02:51:10.258Z,1001.03
2018-01-20T02:52:10.239Z,1001.01
2018-01-20T02:53:10.210Z,1001.01
2018-01-20T02:54:10.189Z,1001.00
2018-01-20T02:55:10.170Z,1000.98
2018-01-20T02:56:10.149Z,1001.00
2018-01-20T02:57:10.119Z,1000.97
2018-01-20T02:58:10.099Z,1000.95
2018-01-20T02:59:10.079Z,1000.98
2018-01-20T03:00:10.062Z,1000.95
2018-01-20T03:01:10.029Z,1000.95
2018-01-20T03:02:10.009Z,1000.95
2018-01-20T03:03:09.991Z,1000.93
2018-01-20T03:04:09.960Z,1000.95
2018-01-20T03:05:09.939Z,1000.83
2018-01-20T03:06:09.921Z,1000.92
2018-01-20T03:07:09.898Z,1000.87
2018-01-20T03:08:09.877Z,1000.85
2018-01-20T03:09:09.849Z,1000.89
2018-01-20T03:10:09.826Z,1000.87
2018-01-20T03:11:09.805Z,1000.81
2018-01-20T03:12:09.780Z,1000.76
2018-01-20T03:13:09.759Z,1000.75
2018-01-20T03:14:09.739Z,1000.74
2018-01-20T03:15:09.819Z,1000.68
2018-01-20T03:16:09.700Z,1000.70
2018-01-20T03:17:09.920Z,1000.73
2018-01-20T03:18:09.650Z,1000.70
2018-01-20T03:19:09.628Z,1000.66
2018-01-20T03:20:09.605Z,1000.67
2018-01-20T03:21:09.609Z,1000.68
2018-01-20T03:22:09.557Z,1000.71
2018-01-20T03:23:09.636Z,1000.76
2018-01-20T03:24:09.509Z,1000.76
2018-01-20T03:25:09.640Z,1000.69
2018-01-20T03:26:09.465Z,1000.66
2018-01-20T03:27:09.446Z,1000.68
2018-01-20T03:28:09.420Z,1000.63
2018-01-20T03:29:09.444Z,1000.67
2018-01-20T03:30:09.381Z,1000.62
2018-01-20T03:31:09.363Z,1000.59
2018-01-20T03:32:09.330Z,1000.60
2018-01-20T03:33:09.336Z,1000.57
2018-01-20T03:34:09.289Z,1000.57
2018-01-20T03:35:09.377Z,1000.51
2018-01-20T03:36:09.238Z,1000.54
2018-01-20T03:37:09.301Z,1000.52
2018-01-20T03:38:09.190Z,1000.50
2018-01-20T03:39:09.176Z,1000.51
2018-01-20T03:40:09.147Z,1000.46
2018-01-20T03:41:09.130Z,1000.43
2018-01-20T03:42:09.111Z,1000.43
2018-01-20T03:43:09.189Z,1000.42
2018-01-20T03:44:09.070Z,1000.44
2018-01-20T03:45:09.041Z,1000.41
2018-01-20T03:46:09.014Z,1000.43
2018-01-20T03:47:08.991Z,1000.39
2018-01-20T03:48:08.969Z,1000.42
2018-01-20T03:49:08.945Z,1000.42
2018-01-20T03:50:08.928Z,1000.41
2018-01-20T03:51:08.906Z,1000.44
2018-01-20T03:52:08.876Z,1000.45
2018-01-20T03:53:08.867Z,1000.40
2018-01-20T03:54:08.830Z,1000.41
2018-01-20T03:55:08.843Z,1000.37
2018-01-20T03:56:08.791Z,1000.42
2018-01-20T03:57:08.760Z,1000.37
2018-01-20T03:58:08.740Z,1000.38
2018-01-20T03:59:08.719Z,1000.33
2018-01-20T04:00:08.696Z,1000.36
2018-01-20T04:01:08.668Z,1000.36
2018-01-20T04:02:08.648Z,1000.35
2018-01-20T04:03:08.627Z,1000.34
2018-01-20T04:04:08.602Z,1000.32
2018-01-20T04:05:08.578Z,1000.40
2018-01-20T04:06:08.559Z,1000.34
2018-01-20T04:07:08.538Z,1000.29
2018-01-20T04:08:08.515Z,1000.28
2018-01-20T04:09:08.493Z,1000.27
2018-01-20T04:10:08.477Z,1000.26
2018-01-20T04:11:08.497Z,1000.25
2018-01-20T04:12:08.428Z,1000.28
2018-01-20T04:13:08.401Z,1000.23
2018-01-20T04:14:08.378Z,1000.18
2018-01-20T04:15:08.359Z,1000.19
2018-01-20T04:16:08.332Z,1000.18
2018-01-20T04:17:08.313Z,1000.17
2018-01-20T04:18:08.287Z,1000.18
2018-01-20T04:19:08.263Z,1000.18
2018-01-20T04:20:08.240Z,1000.23
2018-01-20T04:21:08.220Z,1000.17
2018-01-20T04:22:08.200Z,1000.14
2018-01-20T04:23:08.175Z,1000.11
2018-01-20T04:24:08.178Z,1000.15
2018-01-20T04:25:08.128Z,1000.14
2018-01-20T04:26:08.104Z,1000.11
2018-01-20T04:27:08.079Z,1000.13
2018-01-20T04:28:08.058Z,1000.15
2018-01-20T04:29:08.040Z,1000.09
2018-01-20T04:30:08.019Z,1000.09
2018-01-20T04:31:07.989Z,1000.11
2018-01-20T04:32:07.970Z,1000.08
2018-01-20T04:33:07.947Z,1000.04
2018-01-20T04:34:07.922Z,1000.06
2018-01-20T04:35:07.899Z,1000.06
2018-01-20T04:36:07.877Z,1000.07
2018-01-20T04:37:07.851Z,1000.03
2018-01-20T04:38:07.836Z,1000.02
2018-01-20T04:39:07.809Z,1000.01
2018-01-20T04:40:07.790Z,1000.00
2018-01-20T04:41:07.763Z,999.99
2018-01-20T04:42:07.740Z,999.98
2018-01-20T04:43:07.718Z,999.98
2018-01-20T04:44:07.693Z,999.96
2018-01-20T04:45:07.678Z,999.94
2018-01-20T04:46:07.649Z,999.95
2018-01-20T04:47:07.630Z,999.93
2018-01-20T04:48:07.651Z,999.92
2018-01-20T04:49:07.580Z,999.91
2018-01-20T04:50:07.559Z,999.90
2018-01-20T04:51:07.536Z,999.97
2018-01-20T04:52:07.520Z,999.90
2018-01-20T04:53:07.491Z,999.96
2018-01-20T04:54:07.467Z,999.94
2018-01-20T04:55:07.451Z,999.91
2018-01-20T04:56:07.431Z,999.94
2018-01-20T04:57:07.399Z,999.91
2018-01-20T04:58:07.379Z,999.93
2018-01-20T04:59:07.355Z,999.86
2018-01-20T05:00:07.329Z,999.89
2018-01-20T05:01:07.343Z,999.89
2018-01-20T05:02:07.289Z,999.86
2018-01-20T05:03:07.269Z,999.90
2018-01-20T05:04:07.240Z,999.85
2018-01-20T05:05:07.220Z,999.90
2018-01-20T05:06:07.201Z,999.85
2018-01-20T05:07:07.172Z,999.88
2018-01-20T05:08:07.148Z,999.86
2018-01-20T05:09:07.124Z,999.83
2018-01-20T05:10:07.109Z,999.83
2018-01-20T05:11:07.081Z,999.82
2018-01-20T05:12:07.060Z,999.79
2018-01-20T05:13:07.041Z,999.84
2018-01-20T05:14:07.017Z,999.77
2018-01-20T05:15:06.988Z,999.76
2018-01-20T05:16:06.971Z,999.73
2018-01-20T05:17:06.949Z,999.77
2018-01-20T05:18:06.929Z,999.75
2018-01-20T05:19:06.900Z,999.68
2018-01-20T05:20:06.875Z,999.67
2018-01-20T05:21:06.865Z,999.68
2018-01-20T05:22:06.830Z,999.68
2018-01-20T05:23:06.809Z,999.70
2018-01-20T05:24:06.789Z,999.74
2018-01-20T05:25:06.770Z,999.70
2018-01-20T05:26:06.740Z,999.68
2018-01-20T05:27:06.716Z,999.70
2018-01-20T05:28:06.705Z,999.75
2018-01-20T05:29:06.676Z,999.68
2018-01-20T05:30:06.651Z,999.73
2018-01-20T05:31:06.629Z,999.71
2018-01-20T05:32:06.604Z,999.70
2018-01-20T05:33:06.585Z,999.78
2018-01-20T05:34:06.559Z,999.69
2018-01-20T05:35:06.537Z,999.66
2018-01-20T05:36:06.512Z,999.66
2018-01-20T05:37:06.489Z,999.67
2018-01-20T05:38:06.469Z,999.68
2018-01-20T05:39:06.446Z,999.64
2018-01-20T05:40:06.418Z,999.64
2018-01-20T05:41:06.400Z,999.64
2018-01-20T05:42:06.379Z,999.64
2018-01-20T05:43:06.351Z,999.66
2018-01-20T05:44:06.328Z,999.68
2018-01-20T05:45:06.310Z,999.67
2018-01-20T05:46:06.338Z,999.66
2018-01-20T05:47:06.268Z,999.65
2018-01-20T05:48:06.349Z,999.67
2018-01-20T05:49:06.218Z,999.67
2018-01-20T05:50:06.296Z,999.63
2018-01-20T05:51:06.173Z,999.61
2018-01-20T05:52:06.179Z,999.57
2018-01-20T05:53:06.128Z,999.57
2018-01-20T05:54:06.111Z,999.61
2018-01-20T05:55:06.079Z,999.61
2018-01-20T05:56:06.058Z,999.62
2018-01-20T05:57:06.034Z,999.62
2018-01-20T05:58:06.018Z,999.66
2018-01-20T05:59:05.996Z,999.68
2018-01-20T06:00:05.970Z,999.68
2018-01-20T06:01:05.950Z,999.64
2018-01-20T06:02:05.922Z,999.62
2018-01-20T06:03:05.903Z,999.64
2018-01-20T06:04:05.902Z,999.59
2018-01-20T06:05:05.852Z,999.62
2018-01-20T06:06:05.894Z,999.60
2018-01-20T06:07:05.811Z,999.61
2018-01-20T06:08:05.789Z,999.58
2018-01-20T06:09:05.759Z,999.61
2018-01-20T06:10:05.741Z,999.61
2018-01-20T06:11:05.713Z,999.62
2018-01-20T06:12:05.705Z,999.67
2018-01-20T06:13:05.668Z,999.66
2018-01-20T06:14:05.649Z,999.59
2018-01-20T06:15:05.623Z,999.59
2018-01-20T06:16:05.606Z,999.59
2018-01-20T06:17:05.579Z,999.57
2018-01-20T06:18:05.555Z,999.56
2018-01-20T06:19:05.539Z,999.55
2018-01-20T06:20:05.509Z,999.57
2018-01-20T06:21:05.489Z,999.57
2018-01-20T06:22:05.465Z,999.54
2018-01-20T06:23:05.449Z,999.53
2018-01-20T06:24:05.425Z,999.52
2018-01-20T06:25:05.400Z,999.50
2018-01-20T06:26:05.374Z,999.54
2018-01-20T06:27:05.384Z,999.52
2018-01-20T06:28:05.331Z,999.54
2018-01-20T06:29:05.308Z,999.55
2018-01-20T06:30:05.289Z,999.53
2018-01-20T06:31:05.264Z,999.50
2018-01-20T06:32:05.249Z,999.49
2018-01-20T06:33:05.220Z,999.49
2018-01-20T06:34:05.197Z,999.48
2018-01-20T06:35:05.173Z,999.48
2018-01-20T06:36:05.150Z,999.51
2018-01-20T06:37:05.129Z,999.47
2018-01-20T06:38:05.107Z,999.47
2018-01-20T06:39:05.085Z,999.43
2018-01-20T06:40:05.059Z,999.46
2018-01-20T06:41:05.039Z,999.49
2018-01-20T06:42:05.019Z,999.47
2018-01-20T06:43:04.994Z,999.45
2018-01-20T06:44:04.969Z,999.46
2018-01-20T06:45:04.951Z,999.45
2018-01-20T06:46:04.932Z,999.44
2018-01-20T06:47:04.904Z,999.45
2018-01-20T06:48:04.882Z,999.48
2018-01-20T06:49:04.857Z,999.48
2018-01-20T06:50:04.836Z,999.47
2018-01-20T06:51:04.819Z,999.45
2018-01-20T06:52:04.789Z,999.44
2018-01-20T06:53:04.772Z,999.48
2018-01-20T06:54:04.760Z,999.43
2018-01-20T06:55:04.722Z,999.42
2018-01-20T06:56:04.703Z,999.42
2018-01-20T06:57:04.680Z,999.37
2018-01-20T06:58:04.661Z,999.35
2018-01-20T06:59:04.639Z,999.34
2018-01-20T07:00:04.612Z,999.35
2018-01-20T07:01:04.590Z,999.31
2018-01-20T07:02:04.571Z,999.35
2018-01-20T07:03:04.540Z,999.33
2018-01-20T07:04:04.523Z,999.30
2018-01-20T07:05:04.499Z,999.35
2018-01-20T07:06:04.471Z,999.35
2018-01-20T07:07:04.450Z,999.35
2018-01-20T07:08:04.429Z,999.35
2018-01-20T07:09:04.406Z,999.32
2018-01-20T07:10:04.386Z,999.30
2018-01-20T07:11:04.395Z,999.33
2018-01-20T07:12:04.340Z,999.35
2018-01-20T07:13:04.319Z,999.36
2018-01-20T07:14:04.297Z,999.40
2018-01-20T07:15:04.283Z,999.39
2018-01-20T07:16:04.251Z,999.40
2018-01-20T07:17:04.230Z,999.39
2018-01-20T07:18:04.205Z,999.35
2018-01-20T07:19:04.181Z,999.37
2018-01-20T07:20:04.163Z,999.37
2018-01-20T07:21:04.139Z,999.40
2018-01-20T07:22:04.114Z,999.42
2018-01-20T07:23:04.089Z,999.40
2018-01-20T07:24:04.071Z,999.44
2018-01-20T07:25:04.046Z,999.41
2018-01-20T07:26:04.031Z,999.39
2018-01-20T07:27:03.999Z,999.41
2018-01-20T07:28:03.979Z,999.36
2018-01-20T07:29:03.957Z,999.42
2018-01-20T07:30:03.941Z,999.36
2018-01-20T07:31:03.909Z,999.37
2018-01-20T07:32:03.885Z,999.34
2018-01-20T07:33:03.875Z,999.33
2018-01-20T07:34:03.845Z,999.32
2018-01-20T07:35:03.819Z,999.32
2018-01-20T07:36:03.792Z,999.25
2018-01-20T07:37:03.770Z,999.30
2018-01-20T07:38:03.749Z,999.24
2018-01-20T07:39:03.731Z,999.27
2018-01-20T07:40:03.706Z,999.26
2018-01-20T07:41:03.682Z,999.29
2018-01-20T07:42:03.663Z,999.29
2018-01-20T07:43:03.635Z,999.31
2018-01-20T07:44:03.610Z,999.33
2018-01-20T07:45:03.838Z,999.32
2018-01-20T07:46:03.571Z,999.36
2018-01-20T07:47:03.550Z,999.33
2018-01-20T07:48:03.522Z,999.31
2018-01-20T07:49:03.501Z,999.31
2018-01-20T07:50:03.474Z,999.29
2018-01-20T07:51:03.453Z,999.27
2018-01-20T07:52:03.429Z,999.20
2018-01-20T07:53:03.455Z,999.17
2018-01-20T07:54:03.393Z,999.16
2018-01-20T07:55:03.364Z,999.15
2018-01-20T07:56:03.347Z,999.13
2018-01-20T07:57:03.318Z,999.19
2018-01-20T07:58:03.294Z,999.16
2018-01-20T07:59:03.270Z,999.17
2018-01-20T08:00:03.248Z,999.19
2018-01-20T08:01:03.230Z,999.16
2018-01-20T08:02:03.208Z,999.15
2018-01-20T08:03:03.186Z,999.13
2018-01-20T08:04:03.162Z,999.15
2018-01-20T08:05:03.137Z,999.10
2018-01-20T08:06:03.120Z,999.14
2018-01-20T08:07:03.096Z,999.12
2018-01-20T08:08:03.069Z,999.11
2018-01-20T08:09:03.057Z,999.13
2018-01-20T08:10:03.037Z,999.11
2018-01-20T08:11:03.009Z,999.10
2018-01-20T08:12:02.985Z,999.10
2018-01-20T08:13:02.962Z,999.05
2018-01-20T08:14:02.942Z,999.11
2018-01-20T08:15:02.920Z,999.16
2018-01-20T08:16:02.894Z,999.05
2018-01-20T08:17:02.892Z,999.06
2018-01-20T08:18:02.863Z,999.14
2018-01-20T08:19:02.888Z,999.00
2018-01-20T08:20:02.813Z,999.07
2018-01-20T08:21:02.799Z,999.04
2018-01-20T08:22:02.762Z,999.08
2018-01-20T08:23:02.898Z,999.06
2018-01-20T08:24:02.716Z,999.06
2018-01-20T08:25:02.820Z,999.09
2018-01-20T08:26:02.669Z,999.16
2018-01-20T08:27:02.657Z,999.09
2018-01-20T08:28:02.631Z,999.17
2018-01-20T08:29:02.753Z,999.14
2018-01-20T08:30:02.590Z,999.16
2018-01-20T08:31:02.559Z,999.14
2018-01-20T08:32:02.537Z,999.10
2018-01-20T08:33:02.559Z,999.16
2018-01-20T08:34:02.493Z,999.18
2018-01-20T08:35:02.470Z,999.24
2018-01-20T08:36:02.452Z,999.27
2018-01-20T08:37:02.431Z,999.29
2018-01-20T08:38:02.410Z,999.35
2018-01-20T08:39:02.380Z,999.36
2018-01-20T08:40:02.365Z,999.39
2018-01-20T08:41:02.350Z,999.28
2018-01-20T08:42:02.319Z,999.30
2018-01-20T08:43:02.302Z,999.44
2018-01-20T08:44:02.279Z,999.45
2018-01-20T08:45:02.269Z,999.44
2018-01-20T08:46:02.243Z,999.42
2018-01-20T08:47:02.223Z,999.46
2018-01-20T08:48:02.204Z,999.40
2018-01-20T08:49:02.178Z,999.18
2018-01-20T08:50:02.160Z,999.24
2018-01-20T08:51:02.142Z,999.14
2018-01-20T08:52:02.114Z,999.15
2018-01-20T08:53:02.097Z,999.11
2018-01-20T08:54:02.076Z,999.08
2018-01-20T08:55:02.062Z,999.06
2018-01-20T08:56:02.036Z,999.07
2018-01-20T08:57:02.019Z,999.00
2018-01-20T08:58:01.999Z,998.98
2018-01-20T08:59:01.975Z,998.98
2018-01-20T09:00:01.961Z,998.98
2018-01-20T09:01:01.933Z,998.97
2018-01-20T09:02:01.919Z,998.98
2018-01-20T09:03:01.890Z,998.99
2018-01-20T09:04:01.875Z,998.99
2018-01-20T09:05:01.854Z,998.96
2018-01-20T09:06:01.829Z,998.96
2018-01-20T09:07:01.810Z,998.89
2018-01-20T09:08:01.790Z,998.87
2018-01-20T09:09:01.768Z,998.94
2018-01-20T09:10:01.748Z,998.96
2018-01-20T09:11:01.720Z,998.89
2018-01-20T09:12:01.700Z,998.92
2018-01-20T09:13:01.692Z,998.91
2018-01-20T09:14:01.670Z,998.93
2018-01-20T09:15:01.640Z,998.88
2018-01-20T09:16:01.615Z,998.91
2018-01-20T09:17:01.637Z,999.08
2018-01-20T09:18:01.579Z,998.97
2018-01-20T09:19:01.549Z,999.04
2018-01-20T09:20:01.535Z,998.98
2018-01-20T09:21:01.513Z,999.05
2018-01-20T09:22:01.492Z,999.05
2018-01-20T09:23:01.466Z,999.14
2018-01-20T09:24:01.508Z,999.07
2018-01-20T09:25:01.432Z,999.16
2018-01-20T09:26:01.412Z,999.08
2018-01-20T09:27:01.390Z,999.11
2018-01-20T09:28:01.374Z,999.23
2018-01-20T09:29:01.351Z,999.22
2018-01-20T09:30:01.330Z,999.15
2018-01-20T09:31:01.319Z,999.26
2018-01-20T09:32:01.297Z,999.03
2018-01-20T09:33:01.283Z,999.30
2018-01-20T09:34:01.262Z,999.26
2018-01-20T09:35:01.239Z,999.06
2018-01-20T09:36:01.224Z,999.31
2018-01-20T09:37:01.206Z,999.06
2018-01-20T09:38:01.187Z,998.92
2018-01-20T09:39:01.178Z,998.91
2018-01-20T09:40:01.153Z,998.90
2018-01-20T09:41:01.144Z,998.92
2018-01-20T09:42:01.110Z,999.01
2018-01-20T09:43:01.100Z,999.19
2018-01-20T09:44:01.080Z,998.89
2018-01-20T09:45:01.073Z,999.13
2018-01-20T09:46:01.041Z,999.26
2018-01-20T09:47:01.023Z,998.85
2018-01-20T09:48:01.012Z,999.34
2018-01-20T09:49:00.994Z,999.57
2018-01-20T09:50:00.993Z,998.91
2018-01-20T09:51:00.952Z,998.78
2018-01-20T09:52:00.939Z,998.77
2018-01-20T09:53:00.920Z,999.33
2018-01-20T09:54:00.902Z,998.92
2018-01-20T09:55:00.882Z,999.15
2018-01-20T09:56:00.872Z,999.27
2018-01-20T09:57:00.851Z,999.23
2018-01-20T09:58:00.829Z,998.71
2018-01-20T09:59:00.816Z,998.95
2018-01-20T10:00:00.798Z,998.69
2018-01-20T10:01:00.778Z,998.65
2018-01-20T10:02:00.761Z,998.64
2018-01-20T10:03:00.753Z,998.60
2018-01-20T10:04:00.732Z,998.70
2018-01-20T10:05:00.714Z,998.58
2018-01-20T10:06:00.692Z,998.53
2018-01-20T10:07:00.673Z,998.51
2018-01-20T10:08:00.658Z,998.46
2018-01-20T10:09:00.636Z,998.38
2018-01-20T10:10:00.615Z,998.42
2018-01-20T10:11:00.605Z,998.46
2018-01-20T10:12:00.578Z,998.47
2018-01-20T10:13:00.561Z,998.39
2018-01-20T10:14:00.542Z,998.40
2018-01-20T10:15:00.532Z,998.40
2018-01-20T10:16:00.501Z,998.38
2018-01-20T10:17:00.488Z,998.37
2018-01-20T10:18:00.465Z,998.38
2018-01-20T10:19:00.443Z,998.32
2018-01-20T10:20:00.420Z,998.31
2018-01-20T10:21:00.405Z,998.29
2018-01-20T10:22:00.381Z,998.25
2018-01-20T10:23:00.362Z,998.21
2018-01-20T10:24:00.344Z,998.23
2018-01-20T10:25:00.319Z,998.18
2018-01-20T10:26:00.299Z,998.21
2018-01-20T10:27:00.281Z,998.21
2018-01-20T10:28:00.263Z,998.25
2018-01-20T10:29:00.243Z,998.21
2018-01-20T10:30:00.220Z,998.20
2018-01-20T10:31:00.201Z,998.17
2018-01-20T10:32:00.182Z,998.27
2018-01-20T10:33:00.161Z,998.17
2018-01-20T10:34:00.133Z,998.12
2018-01-20T10:35:00.123Z,998.09
2018-01-20T10:36:00.098Z,998.09
2018-01-20T10:37:00.073Z,998.03
2018-01-20T10:38:00.051Z,998.00
2018-01-20T10:39:00.040Z,998.00
2018-01-20T10:40:00.045Z,997.97
2018-01-20T10:40:59.992Z,997.92
2018-01-20T10:41:59.972Z,997.94
2018-01-20T10:42:59.952Z,997.96
2018-01-20T10:43:59.935Z,997.89
2018-01-20T10:44:59.915Z,997.85
2018-01-20T10:45:59.891Z,997.85
2018-01-20T10:46:59.885Z,997.86
2018-01-20T10:47:59.846Z,997.85
2018-01-20T10:48:59.825Z,997.84
2018-01-20T10:49:59.801Z,997.85
2018-01-20T10:50:59.785Z,997.86
2018-01-20T10:51:59.766Z,997.85
2018-01-20T10:52:59.753Z,997.82
2018-01-20T10:53:59.721Z,997.77
2018-01-20T10:54:59.701Z,997.80
2018-01-20T10:55:59.680Z,997.75
2018-01-20T10:56:59.662Z,997.75
2018-01-20T10:57:59.639Z,997.71
2018-01-20T10:58:59.620Z,997.73
2018-01-20T10:59:59.591Z,997.73
2018-01-20T11:00:59.577Z,997.74
2018-01-20T11:01:59.551Z,997.70
2018-01-20T11:02:59.531Z,997.70
2018-01-20T11:03:59.516Z,997.65
2018-01-20T11:04:59.489Z,997.64
2018-01-20T11:05:59.466Z,997.63
2018-01-20T11:06:59.453Z,997.62
2018-01-20T11:07:59.432Z,997.59
2018-01-20T11:08:59.412Z,997.58
2018-01-20T11:09:59.391Z,997.53
2018-01-20T11:10:59.365Z,997.49
2018-01-20T11:11:59.350Z,997.53
2018-01-20T11:12:59.326Z,997.50
2018-01-20T11:13:59.307Z,997.51
2018-01-20T11:14:59.280Z,997.45
2018-01-20T11:15:59.274Z,997.47
2018-01-20T11:16:59.252Z,997.42
2018-01-20T11:17:59.243Z,997.41
2018-01-20T11:18:59.200Z,997.37
2018-01-20T11:19:59.180Z,997.36
2018-01-20T11:20:59.161Z,997.37
2018-01-20T11:21:59.140Z,997.33
2018-01-20T11:22:59.168Z,997.33
2018-01-20T11:23:59.100Z,997.29
2018-01-20T11:24:59.076Z,997.29
2018-01-20T11:25:59.060Z,997.22
2018-01-20T11:26:59.036Z,997.22
2018-01-20T11:27:59.028Z,997.16
2018-01-20T11:28:58.991Z,997.16
2018-01-20T11:29:58.970Z,997.18
2018-01-20T11:30:58.953Z,997.09
2018-01-20T11:31:58.932Z,997.06
2018-01-20T11:32:58.912Z,997.10
2018-01-20T11:33:58.891Z,997.04
2018-01-20T11:34:58.872Z,997.03
2018-01-20T11:35:58.848Z,996.99
2018-01-20T11:36:58.832Z,997.05
2018-01-20T11:37:58.816Z,996.97
2018-01-20T11:38:58.799Z,996.98
2018-01-20T11:39:58.765Z,996.96
2018-01-20T11:40:58.746Z,996.97
2018-01-20T11:41:58.720Z,996.91
2018-01-20T11:42:58.702Z,996.90
2018-01-20T11:43:58.681Z,996.88
2018-01-20T11:44:58.659Z,996.91
2018-01-20T11:45:58.636Z,996.83
2018-01-20T11:46:58.623Z,996.82
2018-01-20T11:47:58.598Z,996.78
2018-01-20T11:48:58.584Z,996.79
2018-01-20T11:49:58.562Z,996.70
2018-01-20T11:50:58.538Z,996.71
2018-01-20T11:51:58.520Z,996.68
2018-01-20T11:52:58.497Z,996.65
2018-01-20T11:53:58.472Z,996.68
2018-01-20T11:54:58.451Z,996.61
2018-01-20T11:55:58.430Z,996.59
2018-01-20T11:56:58.408Z,996.53
2018-01-20T11:57:58.389Z,996.50
2018-01-20T11:58:58.373Z,996.52
2018-01-20T11:59:58.602Z,996.48
2018-01-20T12:00:58.331Z,996.47
2018-01-20T12:01:58.307Z,996.46
2018-01-20T12:02:58.284Z,996.42
2018-01-20T12:03:58.272Z,996.40
2018-01-20T12:04:58.247Z,996.35
2018-01-20T12:05:58.232Z,996.35
2018-01-20T12:06:58.206Z,996.34
2018-01-20T12:07:58.184Z,996.28
2018-01-20T12:08:58.159Z,996.24
2018-01-20T12:09:58.143Z,996.23
2018-01-20T12:10:58.117Z,996.17
2018-01-20T12:11:58.101Z,996.16
2018-01-20T12:12:58.075Z,996.17
2018-01-20T12:13:58.059Z,996.14
2018-01-20T12:14:58.042Z,996.13
2018-01-20T12:15:58.063Z,996.10
2018-01-20T12:16:58.002Z,996.07
2018-01-20T12:17:57.975Z,996.08
2018-01-20T12:18:57.949Z,996.03